createdAt,value
2023-04-15T00:01:06.049Z,100.00
2023-04-15T00:03:34.688Z,100.00
2023-04-15T00:06:01.742Z,100.00
2023-04-15T00:08:29.120Z,100.00
2023-04-15T00:10:55.748Z,100.00
2023-04-15T00:13:22.435Z,100.00
2023-04-15T00:15:49.136Z,100.00
2023-04-15T00:18:15.775Z,100.00
2023-04-15T00:20:42.435Z,100.00
2023-04-15T00:23:09.576Z,100.00
2023-04-15T00:25:36.172Z,100.00
2023-04-15T00:28:02.784Z,100.00
2023-04-15T00:30:29.396Z,100.00
2023-04-15T00:32:56.054Z,100.00
2023-04-15T00:35:24.096Z,100.00
2023-04-15T00:37:51.493Z,100.00
2023-04-15T00:40:21.081Z,100.00
2023-04-15T00:42:48.189Z,100.00
2023-04-15T00:45:15.692Z,100.00
2023-04-15T00:47:43.592Z,100.00
2023-04-15T00:50:11.366Z,100.00
2023-04-15T00:52:38.335Z,100.00
2023-04-15T00:55:06.200Z,100.00
2023-04-15T00:57:33.403Z,100.00
2023-04-15T01:00:01.190Z,100.00
2023-04-15T01:02:28.213Z,100.00
2023-04-15T01:04:56.817Z,100.00
2023-04-15T01:07:23.548Z,100.00
2023-04-15T01:09:50.293Z,100.00
2023-04-15T01:12:17.647Z,100.00
2023-04-15T01:14:46.428Z,100.00
2023-04-15T01:17:13.393Z,100.00
2023-04-15T01:19:40.846Z,100.00
2023-04-15T01:22:07.591Z,100.00
2023-04-15T01:24:35.890Z,100.00
2023-04-15T01:27:02.605Z,100.00
2023-04-15T01:29:29.680Z,100.00
2023-04-15T01:31:56.984Z,100.00
2023-04-15T01:34:23.869Z,100.00
2023-04-15T01:36:51.226Z,100.00
2023-04-15T01:39:17.945Z,100.00
2023-04-15T01:41:44.722Z,100.00
2023-04-15T01:44:11.658Z,100.00
2023-04-15T01:46:38.379Z,100.00
2023-04-15T01:49:05.053Z,100.00
2023-04-15T01:51:32.196Z,100.00
2023-04-15T01:53:58.931Z,100.00
2023-04-15T01:56:25.566Z,100.00
2023-04-15T01:58:52.917Z,100.00
2023-04-15T02:01:20.250Z,100.00
2023-04-15T02:03:48.058Z,100.00
2023-04-15T02:06:15.066Z,100.00
2023-04-15T02:08:41.712Z,100.00
2023-04-15T02:11:08.528Z,100.00
2023-04-15T02:13:35.326Z,100.00
2023-04-15T02:16:03.427Z,100.00
2023-04-15T02:18:30.154Z,100.00
2023-04-15T02:20:58.710Z,100.00
2023-04-15T02:23:25.626Z,100.00
2023-04-15T02:25:53.848Z,100.00
2023-04-15T02:28:21.775Z,100.00
2023-04-15T02:30:53.062Z,100.00
2023-04-15T02:33:21.078Z,100.00
2023-04-15T02:35:47.765Z,100.00
2023-04-15T02:38:16.910Z,100.00
2023-04-15T02:40:43.517Z,100.00
2023-04-15T02:43:10.118Z,100.00
2023-04-15T02:45:36.892Z,100.00
2023-04-15T02:48:06.296Z,100.00
2023-04-15T02:50:33.479Z,100.00
2023-04-15T02:53:01.763Z,100.00
2023-04-15T02:55:29.040Z,100.00
2023-04-15T02:57:55.892Z,100.00
2023-04-15T03:00:25.346Z,100.00
2023-04-15T03:02:56.581Z,100.00
2023-04-15T03:05:26.556Z,100.00
2023-04-15T03:07:53.645Z,100.00
2023-04-15T03:10:20.869Z,100.00
2023-04-15T03:12:47.720Z,100.00
2023-04-15T03:15:14.539Z,100.00
2023-04-15T03:17:41.407Z,100.00
2023-04-15T03:20:08.853Z,100.00
2023-04-15T03:22:35.573Z,100.00
2023-04-15T03:25:03.573Z,100.00
2023-04-15T03:27:30.200Z,100.00
2023-04-15T03:29:56.925Z,100.00
2023-04-15T03:32:23.621Z,100.00
2023-04-15T03:34:50.377Z,100.00
2023-04-15T03:37:17.077Z,100.00
2023-04-15T03:39:43.705Z,100.00
2023-04-15T03:42:10.325Z,100.00
2023-04-15T03:44:37.393Z,100.00
2023-04-15T03:47:04.009Z,100.00
2023-04-15T03:49:30.873Z,100.00
2023-04-15T03:51:57.514Z,100.00
2023-04-15T03:54:24.165Z,100.00
2023-04-15T03:56:51.080Z,100.00
2023-04-15T03:59:17.719Z,100.00
2023-04-15T04:01:44.474Z,100.00
2023-04-15T04:04:12.753Z,100.00
2023-04-15T04:06:39.555Z,100.00
2023-04-15T04:09:06.183Z,100.00
2023-04-15T04:11:33.158Z,100.00
2023-04-15T04:13:59.789Z,100.00
2023-04-15T04:16:26.607Z,100.00
2023-04-15T04:18:53.419Z,100.00
2023-04-15T04:21:21.082Z,100.00
2023-04-15T04:23:47.793Z,100.00
2023-04-15T04:26:14.468Z,100.00
2023-04-15T04:28:41.077Z,100.00
2023-04-15T04:31:08.065Z,100.00
2023-04-15T04:33:34.770Z,100.00
2023-04-15T04:36:01.539Z,100.00
2023-04-15T04:38:28.218Z,100.00
2023-04-15T04:40:54.883Z,100.00
2023-04-15T04:43:21.643Z,100.00
2023-04-15T04:45:48.253Z,100.00
2023-04-15T04:48:15.040Z,100.00
2023-04-15T04:50:42.008Z,100.00
2023-04-15T04:53:09.030Z,100.00
2023-04-15T04:55:37.125Z,100.00
2023-04-15T04:58:03.874Z,100.00
2023-04-15T05:00:30.595Z,100.00
2023-04-15T05:02:57.550Z,100.00
2023-04-15T05:05:24.268Z,100.00
2023-04-15T05:07:51.259Z,100.00
2023-04-15T05:10:18.426Z,100.00
2023-04-15T05:12:45.084Z,100.00
2023-04-15T05:15:12.186Z,100.00
2023-04-15T05:17:38.877Z,100.00
2023-04-15T05:20:06.098Z,100.00
2023-04-15T05:22:32.854Z,100.00
2023-04-15T05:24:59.476Z,100.00
2023-04-15T05:27:26.168Z,100.00
2023-04-15T05:29:52.772Z,100.00
2023-04-15T05:32:19.435Z,100.00
2023-04-15T05:34:46.341Z,100.00
2023-04-15T05:37:13.092Z,100.00
2023-04-15T05:39:39.909Z,100.00
2023-04-15T05:42:06.912Z,100.00
2023-04-15T05:44:33.523Z,100.00
2023-04-15T05:47:00.302Z,100.00
2023-04-15T05:49:27.565Z,100.00
2023-04-15T05:51:54.300Z,100.00
2023-04-15T05:54:23.321Z,99.71
2023-04-15T05:56:50.010Z,99.05
2023-04-15T05:59:16.875Z,98.00
2023-04-15T06:01:43.944Z,96.87
2023-04-15T06:04:11.674Z,96.22
2023-04-15T06:06:38.745Z,95.45
2023-04-15T06:09:05.463Z,94.85
2023-04-15T06:11:32.190Z,92.50
2023-04-15T06:13:58.792Z,91.63
2023-04-15T06:16:25.495Z,92.34
2023-04-15T06:18:52.179Z,91.94
2023-04-15T06:21:19.360Z,90.97
2023-04-15T06:23:46.511Z,90.77
2023-04-15T06:26:13.133Z,90.04
2023-04-15T06:28:39.788Z,90.07
2023-04-15T06:31:06.479Z,88.71
2023-04-15T06:33:33.169Z,87.91
2023-04-15T06:35:59.736Z,88.22
2023-04-15T06:38:26.590Z,86.15
2023-04-15T06:40:53.257Z,84.93
2023-04-15T06:43:20.920Z,84.61
2023-04-15T06:45:47.639Z,83.69
2023-04-15T06:48:14.456Z,83.97
2023-04-15T06:50:41.355Z,84.17
2023-04-15T06:53:08.044Z,83.25
2023-04-15T06:55:34.700Z,83.00
2023-04-15T06:58:01.420Z,83.13
2023-04-15T07:00:28.800Z,82.77
2023-04-15T07:02:55.999Z,83.67
2023-04-15T07:05:22.778Z,84.55
2023-04-15T07:07:49.364Z,87.47
2023-04-15T07:10:16.143Z,86.86
2023-04-15T07:12:42.806Z,87.77
2023-04-15T07:15:10.042Z,87.68
2023-04-15T07:17:37.199Z,86.39
2023-04-15T07:20:05.021Z,88.55
2023-04-15T07:22:31.672Z,88.37
2023-04-15T07:24:58.263Z,90.21
2023-04-15T07:27:24.880Z,90.01
2023-04-15T07:29:52.176Z,90.69
2023-04-15T07:32:19.172Z,91.75
2023-04-15T07:34:45.885Z,89.15
2023-04-15T07:37:12.727Z,89.43
2023-04-15T07:39:39.383Z,88.41
2023-04-15T07:42:06.041Z,89.22
2023-04-15T07:44:32.732Z,88.76
2023-04-15T07:46:59.423Z,88.99
2023-04-15T07:49:26.118Z,87.74
2023-04-15T07:51:53.274Z,89.88
2023-04-15T07:54:19.978Z,86.82
2023-04-15T07:56:46.603Z,87.61
2023-04-15T07:59:13.282Z,87.04
2023-04-15T08:01:39.887Z,86.71
2023-04-15T08:04:06.705Z,85.24
2023-04-15T08:06:33.466Z,83.04
2023-04-15T08:09:00.533Z,83.85
2023-04-15T08:11:27.891Z,84.37
2023-04-15T08:13:54.664Z,84.23
2023-04-15T08:16:23.568Z,80.13
2023-04-15T08:18:52.297Z,78.85
2023-04-15T08:21:20.133Z,78.35
2023-04-15T08:23:48.478Z,77.77
2023-04-15T08:26:15.264Z,77.42
2023-04-15T08:28:43.038Z,76.47
2023-04-15T08:31:09.945Z,74.70
2023-04-15T08:33:36.978Z,74.24
2023-04-15T08:36:04.587Z,74.41
2023-04-15T08:38:31.435Z,75.44
2023-04-15T08:41:00.405Z,74.85
2023-04-15T08:43:40.194Z,72.93
2023-04-15T08:46:07.522Z,74.23
2023-04-15T08:48:35.910Z,72.13
2023-04-15T08:51:03.214Z,72.41
2023-04-15T08:53:30.633Z,69.15
2023-04-15T08:55:58.963Z,67.24
2023-04-15T08:58:26.304Z,65.73
2023-04-15T09:00:53.221Z,66.72
2023-04-15T09:03:21.933Z,68.18
2023-04-15T09:05:48.677Z,69.86
2023-04-15T09:08:15.825Z,68.36
2023-04-15T09:10:42.722Z,68.62
2023-04-15T09:13:09.529Z,67.20
2023-04-15T09:15:39.002Z,68.17
2023-04-15T09:18:07.007Z,67.91
2023-04-15T09:20:42.451Z,66.64
2023-04-15T09:23:14.366Z,65.94
2023-04-15T09:25:45.832Z,64.07
2023-04-15T09:28:13.552Z,65.44
2023-04-15T09:30:46.609Z,66.02
2023-04-15T09:33:14.827Z,66.09
2023-04-15T09:35:41.533Z,64.54
2023-04-15T09:38:09.908Z,63.39
2023-04-15T09:40:39.580Z,63.09
2023-04-15T09:43:07.824Z,64.53
2023-04-15T09:45:36.472Z,65.42
2023-04-15T09:48:26.884Z,65.88
2023-04-15T09:50:57.669Z,65.70
2023-04-15T09:53:26.102Z,65.42
2023-04-15T09:55:58.142Z,65.58
2023-04-15T09:58:35.733Z,62.26
2023-04-15T10:01:04.784Z,62.86
2023-04-15T10:03:34.419Z,59.13
2023-04-15T10:06:02.183Z,57.00
2023-04-15T10:08:31.040Z,56.17
2023-04-15T10:10:57.995Z,55.68
2023-04-15T10:13:28.698Z,55.36
2023-04-15T10:15:58.849Z,55.07
2023-04-15T10:18:28.085Z,52.79
2023-04-15T10:20:55.636Z,51.86
2023-04-15T10:23:24.615Z,51.80
2023-04-15T10:25:54.498Z,51.25
2023-04-15T10:28:22.978Z,52.03
2023-04-15T10:30:50.166Z,52.74
2023-04-15T10:33:26.677Z,54.99
2023-04-15T10:35:55.765Z,55.71
2023-04-15T10:38:42.829Z,50.74
2023-04-15T10:41:34.679Z,49.46
2023-04-15T10:44:04.835Z,48.61
2023-04-15T10:46:39.183Z,50.70
2023-04-15T10:49:11.393Z,49.80
2023-04-15T10:51:42.122Z,51.40
2023-04-15T10:54:17.598Z,51.55
2023-04-15T10:57:11.776Z,49.09
2023-04-15T10:59:59.756Z,51.00
2023-04-15T11:02:48.822Z,52.49
2023-04-15T11:05:17.379Z,50.29
2023-04-15T11:07:49.692Z,51.31
2023-04-15T11:10:25.941Z,52.11
2023-04-15T11:12:54.878Z,54.02
2023-04-15T11:15:39.064Z,54.03
2023-04-15T11:18:12.719Z,56.09
2023-04-15T11:20:47.320Z,53.19
2023-04-15T11:23:19.281Z,51.14
2023-04-15T11:25:46.395Z,52.68
2023-04-15T11:28:14.419Z,53.44
2023-04-15T11:30:42.606Z,52.67
2023-04-15T11:33:12.148Z,52.52
2023-04-15T11:35:40.973Z,52.06
2023-04-15T11:38:13.151Z,51.91
2023-04-15T11:40:40.959Z,51.05
2023-04-15T11:43:17.162Z,48.67
2023-04-15T11:45:53.119Z,49.54
2023-04-15T11:48:22.145Z,50.76
2023-04-15T11:51:06.294Z,51.89
2023-04-15T11:53:42.922Z,50.46
2023-04-15T11:56:11.678Z,48.65
2023-04-15T11:58:42.595Z,49.30
2023-04-15T12:01:09.195Z,50.35
2023-04-15T12:03:41.136Z,48.16
2023-04-15T12:06:14.267Z,50.44
2023-04-15T12:08:59.185Z,47.93
2023-04-15T12:11:47.486Z,48.62
2023-04-15T12:14:26.545Z,50.27
2023-04-15T12:16:58.245Z,50.59
2023-04-15T12:19:27.693Z,49.60
2023-04-15T12:22:02.292Z,50.53
2023-04-15T12:24:33.188Z,50.75
2023-04-15T12:27:04.628Z,50.82
2023-04-15T12:29:32.794Z,51.00
2023-04-15T12:32:09.130Z,51.65
2023-04-15T12:34:40.604Z,52.64
2023-04-15T12:37:12.103Z,52.12
2023-04-15T12:39:41.530Z,51.99
2023-04-15T12:42:08.948Z,52.83
2023-04-15T12:44:36.796Z,53.32
2023-04-15T12:47:03.631Z,50.46
2023-04-15T12:49:31.179Z,53.47
2023-04-15T12:52:00.216Z,53.98
2023-04-15T12:54:27.986Z,52.19
2023-04-15T12:56:55.476Z,53.47
2023-04-15T12:59:23.846Z,54.43
2023-04-15T13:01:52.339Z,54.38
2023-04-15T13:04:20.785Z,53.15
2023-04-15T13:06:47.642Z,52.88
2023-04-15T13:09:15.723Z,52.69
2023-04-15T13:11:42.622Z,53.27
2023-04-15T13:14:11.784Z,52.36
2023-04-15T13:16:38.714Z,52.97
2023-04-15T13:19:05.617Z,52.71
2023-04-15T13:21:35.489Z,53.17
2023-04-15T13:24:03.102Z,53.16
2023-04-15T13:26:29.994Z,53.41
2023-04-15T13:28:56.740Z,52.08
2023-04-15T13:31:23.401Z,54.25
2023-04-15T13:33:50.077Z,54.38
2023-04-15T13:36:16.727Z,55.48
2023-04-15T13:38:43.673Z,55.66
2023-04-15T13:41:10.554Z,55.42
2023-04-15T13:43:37.671Z,56.64
2023-04-15T13:46:04.505Z,57.21
2023-04-15T13:48:31.647Z,56.62
2023-04-15T13:50:58.277Z,57.18
2023-04-15T13:53:37.700Z,57.41
2023-04-15T13:56:09.600Z,56.51
2023-04-15T13:58:37.400Z,57.37
2023-04-15T14:01:06.062Z,57.01
2023-04-15T14:03:34.525Z,57.87
2023-04-15T14:06:01.458Z,55.04
2023-04-15T14:08:28.047Z,55.57
2023-04-15T14:10:54.632Z,54.02
2023-04-15T14:13:21.338Z,53.79
2023-04-15T14:15:47.981Z,53.31
2023-04-15T14:18:14.632Z,52.74
2023-04-15T14:20:41.300Z,53.27
2023-04-15T14:23:08.080Z,53.24
2023-04-15T14:25:34.750Z,52.17
2023-04-15T14:28:02.402Z,52.00
2023-04-15T14:30:29.015Z,53.19
2023-04-15T14:32:55.773Z,52.24
2023-04-15T14:35:24.721Z,52.35
2023-04-15T14:37:51.590Z,50.61
2023-04-15T14:40:18.246Z,50.79
2023-04-15T14:42:44.950Z,52.53
2023-04-15T14:45:11.745Z,52.11
2023-04-15T14:47:38.482Z,53.49
2023-04-15T14:50:08.079Z,53.49
2023-04-15T14:52:38.727Z,53.56
2023-04-15T14:55:07.582Z,53.27
2023-04-15T14:57:34.266Z,52.95
2023-04-15T15:00:00.865Z,53.67
2023-04-15T15:02:38.536Z,52.73
2023-04-15T15:05:07.276Z,52.59
2023-04-15T15:07:34.140Z,53.98
2023-04-15T15:10:00.828Z,53.51
2023-04-15T15:12:27.566Z,53.32
2023-04-15T15:14:55.975Z,53.67
2023-04-15T15:17:22.814Z,53.93
2023-04-15T15:19:49.471Z,54.22
2023-04-15T15:22:16.266Z,53.97
2023-04-15T15:24:42.891Z,53.47
2023-04-15T15:27:10.048Z,53.75
2023-04-15T15:29:37.908Z,54.64
2023-04-15T15:32:04.662Z,54.68
2023-04-15T15:34:34.183Z,55.93
2023-04-15T15:37:00.942Z,55.99
2023-04-15T15:39:28.093Z,56.83
2023-04-15T15:41:55.160Z,56.40
2023-04-15T15:44:21.789Z,57.68
2023-04-15T15:46:49.998Z,57.92
2023-04-15T15:49:16.687Z,58.34
2023-04-15T15:51:43.558Z,58.80
2023-04-15T15:54:12.266Z,59.19
2023-04-15T15:56:39.537Z,58.75
2023-04-15T15:59:06.507Z,58.79
2023-04-15T16:01:33.408Z,60.04
2023-04-15T16:04:01.003Z,60.17
2023-04-15T16:06:28.196Z,59.75
2023-04-15T16:08:54.951Z,59.83
2023-04-15T16:11:21.568Z,63.30
2023-04-15T16:13:48.255Z,62.55
2023-04-15T16:16:15.242Z,62.05
2023-04-15T16:18:41.896Z,62.88
2023-04-15T16:21:08.824Z,63.34
2023-04-15T16:23:36.720Z,65.01
2023-04-15T16:26:06.681Z,64.59
2023-04-15T16:28:33.150Z,65.17
2023-04-15T16:30:59.981Z,65.98
2023-04-15T16:33:26.996Z,66.83
2023-04-15T16:35:53.728Z,67.03
2023-04-15T16:38:20.857Z,66.95
2023-04-15T16:40:47.573Z,67.51
2023-04-15T16:43:14.199Z,68.57
2023-04-15T16:45:40.948Z,69.10
2023-04-15T16:48:07.586Z,68.63
2023-04-15T16:50:34.231Z,69.50
2023-04-15T16:53:01.607Z,69.03
2023-04-15T16:55:31.304Z,69.05
2023-04-15T16:58:02.918Z,72.01
2023-04-15T17:00:31.662Z,75.60
2023-04-15T17:02:59.269Z,75.92
2023-04-15T17:05:30.798Z,76.02
2023-04-15T17:07:57.636Z,75.68
2023-04-15T17:10:24.564Z,74.04
2023-04-15T17:12:52.723Z,75.36
2023-04-15T17:15:19.961Z,77.20
2023-04-15T17:17:49.654Z,78.38
2023-04-15T17:20:17.544Z,79.45
2023-04-15T17:22:44.587Z,80.81
2023-04-15T17:25:11.219Z,81.25
2023-04-15T17:27:38.696Z,81.47
2023-04-15T17:30:07.233Z,82.50
2023-04-15T17:32:34.980Z,78.90
2023-04-15T17:35:04.320Z,79.54
2023-04-15T17:37:30.993Z,77.74
2023-04-15T17:39:57.577Z,78.15
2023-04-15T17:42:24.197Z,79.07
2023-04-15T17:44:50.925Z,79.96
2023-04-15T17:47:18.235Z,80.36
2023-04-15T17:49:44.967Z,82.22
2023-04-15T17:52:11.647Z,82.63
2023-04-15T17:54:38.303Z,83.31
2023-04-15T17:57:04.948Z,82.69
2023-04-15T17:59:33.761Z,83.57
2023-04-15T18:02:01.582Z,83.83
2023-04-15T18:04:28.706Z,83.35
2023-04-15T18:06:55.437Z,84.12
2023-04-15T18:09:22.204Z,82.66
2023-04-15T18:11:49.054Z,83.35
2023-04-15T18:14:27.101Z,83.23
2023-04-15T18:16:57.804Z,82.75
2023-04-15T18:19:25.835Z,83.52
2023-04-15T18:21:52.567Z,83.28
2023-04-15T18:24:19.362Z,83.63
2023-04-15T18:26:48.736Z,83.83
2023-04-15T18:29:15.865Z,83.19
2023-04-15T18:31:42.623Z,83.60
2023-04-15T18:34:09.338Z,83.18
2023-04-15T18:36:36.013Z,83.88
2023-04-15T18:39:02.810Z,83.76
2023-04-15T18:41:29.775Z,84.79
2023-04-15T18:43:56.472Z,84.97
2023-04-15T18:46:23.193Z,84.55
2023-04-15T18:48:49.882Z,84.84
2023-04-15T18:51:16.564Z,84.04
2023-04-15T18:53:43.220Z,83.26
2023-04-15T18:56:09.976Z,82.93
2023-04-15T18:59:25.980Z,84.81
2023-04-15T19:01:24.166Z,89.47
2023-04-15T19:03:51.046Z,91.73
2023-04-15T19:06:18.749Z,96.27
2023-04-15T19:08:45.486Z,97.97
2023-04-15T19:11:12.095Z,97.70
2023-04-15T19:13:38.733Z,96.82
2023-04-15T19:16:05.809Z,96.98
2023-04-15T19:18:32.419Z,98.96
2023-04-15T19:20:59.169Z,100.00
2023-04-15T19:23:25.953Z,100.00
2023-04-15T19:25:52.643Z,100.00
2023-04-15T19:28:19.637Z,100.00
2023-04-15T19:30:46.539Z,100.00
2023-04-15T19:33:13.260Z,99.89
2023-04-15T19:35:40.820Z,100.00
2023-04-15T19:38:09.726Z,100.00
2023-04-15T19:40:36.338Z,99.52
2023-04-15T19:43:02.979Z,98.45
2023-04-15T19:45:29.590Z,98.62
2023-04-15T19:47:56.281Z,99.44
2023-04-15T19:50:27.681Z,99.94
2023-04-15T19:52:54.412Z,100.00
2023-04-15T19:55:21.082Z,100.00
2023-04-15T19:57:47.807Z,100.00
2023-04-15T20:00:14.464Z,100.00
2023-04-15T20:02:41.361Z,100.00
2023-04-15T20:05:11.182Z,100.00
2023-04-15T20:07:39.654Z,100.00
2023-04-15T20:10:08.551Z,98.95
2023-04-15T20:12:50.533Z,98.52
2023-04-15T20:15:21.695Z,97.84
2023-04-15T20:17:48.359Z,98.06
2023-04-15T20:20:15.363Z,98.21
2023-04-15T20:22:42.199Z,98.28
2023-04-15T20:25:09.061Z,98.06
2023-04-15T20:27:35.810Z,97.80
2023-04-15T20:30:04.772Z,97.76
2023-04-15T20:32:35.437Z,97.78
2023-04-15T20:35:04.311Z,98.03
2023-04-15T20:37:33.303Z,97.69
2023-04-15T20:40:00.819Z,98.00
2023-04-15T20:42:28.619Z,97.54
2023-04-15T20:44:55.671Z,97.59
2023-04-15T20:47:23.464Z,96.73
2023-04-15T20:49:50.096Z,96.92
2023-04-15T20:52:16.776Z,96.91
2023-04-15T20:54:44.840Z,97.22
2023-04-15T20:57:11.482Z,97.18
2023-04-15T20:59:38.383Z,97.69
2023-04-15T21:02:06.199Z,97.91
2023-04-15T21:04:32.934Z,98.16
2023-04-15T21:06:59.587Z,98.32
2023-04-15T21:09:26.452Z,98.58
2023-04-15T21:12:01.227Z,98.21
2023-04-15T21:14:28.874Z,98.37
2023-04-15T21:16:58.261Z,98.05
2023-04-15T21:19:24.962Z,97.80
2023-04-15T21:21:51.655Z,97.40
2023-04-15T21:24:18.265Z,97.05
2023-04-15T21:26:44.880Z,97.63
2023-04-15T21:29:12.085Z,98.29
2023-04-15T21:31:39.111Z,98.66
2023-04-15T21:34:07.068Z,98.55
2023-04-15T21:36:34.019Z,98.67
2023-04-15T21:39:01.064Z,98.32
2023-04-15T21:41:28.174Z,97.93
2023-04-15T21:43:54.962Z,97.50
2023-04-15T21:46:25.319Z,97.60
2023-04-15T21:48:53.730Z,97.38
2023-04-15T21:51:20.601Z,97.34
2023-04-15T21:53:47.328Z,96.46
2023-04-15T21:56:14.042Z,96.50
2023-04-15T21:58:40.665Z,96.73
2023-04-15T22:01:07.451Z,96.63
2023-04-15T22:03:35.296Z,97.48
2023-04-15T22:06:03.451Z,97.68
2023-04-15T22:08:38.538Z,98.05
2023-04-15T22:11:21.597Z,96.37
2023-04-15T22:13:48.263Z,96.90
2023-04-15T22:16:14.851Z,97.51
2023-04-15T22:18:41.465Z,96.93
2023-04-15T22:21:08.563Z,96.42
2023-04-15T22:23:35.210Z,95.71
2023-04-15T22:26:02.000Z,95.26
2023-04-15T22:28:28.725Z,97.02
2023-04-15T22:30:56.113Z,95.35
2023-04-15T22:33:22.791Z,94.58
2023-04-15T22:35:49.428Z,93.82
2023-04-15T22:38:16.044Z,93.03
2023-04-15T22:40:42.612Z,93.07
2023-04-15T22:43:09.250Z,93.23
2023-04-15T22:45:36.085Z,93.15
2023-04-15T22:48:02.748Z,92.79
2023-04-15T22:50:29.415Z,92.75
2023-04-15T22:52:56.035Z,93.09
2023-04-15T22:55:22.768Z,93.64
2023-04-15T22:57:49.406Z,94.10
2023-04-15T23:00:16.062Z,93.85
2023-04-15T23:02:42.713Z,93.82
2023-04-15T23:05:12.749Z,94.02
2023-04-15T23:07:40.162Z,93.81
2023-04-15T23:10:08.108Z,93.64
2023-04-15T23:12:34.950Z,92.78
2023-04-15T23:15:01.624Z,93.17
2023-04-15T23:17:28.339Z,92.66
2023-04-15T23:19:54.942Z,91.87
2023-04-15T23:22:21.575Z,90.20
2023-04-15T23:24:48.275Z,89.71
2023-04-15T23:27:14.857Z,89.43
2023-04-15T23:29:41.734Z,89.21
2023-04-15T23:32:11.489Z,89.05
2023-04-15T23:34:38.137Z,88.75
2023-04-15T23:37:05.020Z,88.93
2023-04-15T23:39:32.122Z,88.76
2023-04-15T23:41:58.701Z,89.15
2023-04-15T23:44:25.300Z,89.42
2023-04-15T23:46:51.942Z,89.80
2023-04-15T23:49:20.232Z,90.11
2023-04-15T23:51:47.257Z,90.07
2023-04-15T23:54:15.332Z,89.80
2023-04-15T23:56:41.931Z,90.23
2023-04-15T23:59:08.894Z,90.41
